Time;durP1;ratioP1;P1;durP2;ratioP2;P2;SDS_P1;SDS_P2;PMS_P1;PMS_P2;Temp;Humidity;BMP_temperature;BMP_pressure;BME280_temperature;BME280_humidity;BME280_pressure;Samples;Min_cycle;Max_cycle;Signal;HPM_P1;HPM_P2
2022/04/19 00:00:35;;;;;;;5.00;2.23;;;7.60;99.90;;;;;;5115613;28;20448;-68
2022/04/19 00:03:03;;;;;;;3.53;2.67;;;7.60;99.90;;;;;;5115509;28;20460;-69
2022/04/19 00:05:30;;;;;;;2.67;2.40;;;7.50;99.90;;;;;;5114729;28;20457;-69
2022/04/19 00:07:57;;;;;;;2.43;2.23;;;7.40;99.90;;;;;;5115392;28;20773;-69
2022/04/19 00:10:25;;;;;;;2.50;2.20;;;7.40;99.90;;;;;;5115283;28;20808;-69
2022/04/19 00:12:51;;;;;;;2.40;2.20;;;7.40;99.90;;;;;;5115194;28;20462;-69
2022/04/19 00:15:18;;;;;;;2.83;2.47;;;7.30;99.90;;;;;;5115073;28;20475;-70
2022/04/19 00:17:45;;;;;;;2.40;2.20;;;7.30;99.90;;;;;;5114873;28;20926;-69
2022/04/19 00:20:13;;;;;;;2.97;2.67;;;7.20;99.90;;;;;;5114981;28;20464;-69
2022/04/19 00:22:39;;;;;;;2.40;2.20;;;7.20;99.90;;;;;;5114850;28;20460;-69
2022/04/19 00:25:07;;;;;;;3.73;2.10;;;7.20;99.90;;;;;;5115769;28;20916;-69
2022/04/19 00:27:34;;;;;;;5.10;2.57;;;7.20;99.90;;;;;;5115243;28;20452;-69
2022/04/19 00:30:01;;;;;;;3.97;3.00;;;7.10;99.90;;;;;;5114925;28;20460;-68
2022/04/19 00:32:28;;;;;;;4.57;2.60;;;7.20;99.90;;;;;;5115437;28;20449;-69
2022/04/19 00:34:54;;;;;;;3.10;2.27;;;7.20;99.90;;;;;;5114829;28;20933;-70
2022/04/19 00:37:23;;;;;;;2.90;2.70;;;7.20;99.90;;;;;;5114862;28;20913;-70
2022/04/19 00:39:50;;;;;;;2.60;2.20;;;7.20;99.90;;;;;;5115170;28;20471;-69
2022/04/19 00:42:17;;;;;;;2.50;2.30;;;7.20;99.90;;;;;;5114988;28;20456;-69
2022/04/19 00:44:44;;;;;;;3.13;2.50;;;7.20;99.90;;;;;;5114704;28;20523;-69
2022/04/19 00:47:14;;;;;;;4.37;2.27;;;7.20;99.90;;;;;;5114983;28;20892;-69
2022/04/19 00:49:43;;;;;;;2.70;2.50;;;7.20;99.90;;;;;;5115763;28;20892;-69
2022/04/19 00:52:10;;;;;;;4.33;2.23;;;7.30;99.90;;;;;;5114062;28;21071;-69
2022/04/19 00:54:38;;;;;;;3.77;2.60;;;7.20;99.90;;;;;;5114346;28;20457;-69
2022/04/19 00:57:06;;;;;;;3.47;2.50;;;7.30;99.90;;;;;;5113875;28;20480;-70
2022/04/19 00:59:33;;;;;;;2.90;2.43;;;7.20;99.90;;;;;;5114629;28;20795;-69
2022/04/19 01:02:00;;;;;;;4.87;2.47;;;7.20;99.90;;;;;;5114397;28;20931;-68
2022/04/19 01:04:27;;;;;;;2.33;2.07;;;7.20;99.90;;;;;;5115089;28;20472;-70
2022/04/19 01:06:54;;;;;;;2.90;2.10;;;7.20;99.90;;;;;;5114029;28;20921;-69
2022/04/19 01:09:21;;;;;;;4.30;2.47;;;7.20;99.90;;;;;;5114951;28;20453;-69
2022/04/19 01:14:36;;;;;;;3.10;2.70;;;7.10;99.90;;;;;;5114814;28;20436;-70
2022/04/19 01:17:04;;;;;;;2.80;2.50;;;7.10;99.90;;;;;;5116142;28;20448;-69
2022/04/19 01:19:31;;;;;;;2.37;2.17;;;7.10;99.90;;;;;;5118119;28;20471;-69
2022/04/19 01:22:00;;;;;;;2.43;2.00;;;7.00;99.90;;;;;;5118583;28;20448;-69
2022/04/19 01:24:26;;;;;;;3.17;2.07;;;7.00;99.90;;;;;;5118064;28;20913;-69
2022/04/19 01:26:56;;;;;;;2.80;2.50;;;7.00;99.90;;;;;;5118070;28;20469;-69
2022/04/19 01:29:22;;;;;;;2.70;2.20;;;6.90;99.90;;;;;;5118055;28;20463;-69
2022/04/19 01:31:51;;;;;;;3.30;2.67;;;7.00;99.90;;;;;;5117915;28;20807;-69
2022/04/19 01:34:18;;;;;;;3.07;2.77;;;6.90;99.90;;;;;;5117403;28;20576;-69
2022/04/19 01:36:45;;;;;;;3.10;2.47;;;6.90;99.90;;;;;;5117656;28;21001;-69
2022/04/19 01:39:13;;;;;;;2.70;2.50;;;6.90;99.90;;;;;;5117843;28;20466;-69
2022/04/19 01:41:41;;;;;;;3.00;2.50;;;6.90;99.90;;;;;;5117480;28;20885;-69
2022/04/19 01:44:08;;;;;;;3.37;2.77;;;6.90;99.90;;;;;;5117904;28;20921;-69
2022/04/19 01:46:36;;;;;;;2.83;2.40;;;6.90;99.90;;;;;;5117817;28;20471;-69
2022/04/19 01:49:04;;;;;;;3.13;2.50;;;6.80;99.90;;;;;;5117542;28;20453;-69
2022/04/19 01:51:30;;;;;;;4.27;2.80;;;6.80;99.90;;;;;;5117129;28;20591;-69
2022/04/19 01:53:57;;;;;;;4.50;2.63;;;6.80;99.90;;;;;;5117393;28;20467;-69
2022/04/19 01:56:25;;;;;;;4.07;2.80;;;6.80;99.90;;;;;;5116905;28;20480;-69
2022/04/19 01:58:52;;;;;;;2.77;2.40;;;6.80;99.90;;;;;;5117309;28;20822;-69
2022/04/19 02:01:19;;;;;;;2.37;2.20;;;6.70;99.90;;;;;;5117355;28;20453;-69
2022/04/19 02:03:45;;;;;;;2.97;2.30;;;6.70;99.90;;;;;;5117254;28;20467;-69
2022/04/19 02:06:13;;;;;;;4.13;2.97;;;6.70;99.90;;;;;;5117113;28;20541;-69
2022/04/19 02:08:40;;;;;;;3.40;2.43;;;6.70;99.90;;;;;;5115986;28;20457;-69
2022/04/19 02:11:07;;;;;;;2.83;2.53;;;6.70;99.90;;;;;;5115978;28;20511;-69
2022/04/19 02:13:35;;;;;;;2.63;2.40;;;6.70;99.90;;;;;;5115888;28;20452;-69
2022/04/19 02:16:02;;;;;;;3.17;2.87;;;6.70;99.90;;;;;;5115978;28;20464;-69
2022/04/19 02:18:28;;;;;;;3.13;2.43;;;6.70;99.90;;;;;;5115759;28;20457;-69
2022/04/19 02:20:55;;;;;;;3.10;2.33;;;6.70;99.90;;;;;;5115702;28;20448;-69
2022/04/19 02:23:23;;;;;;;2.70;2.30;;;6.70;99.90;;;;;;5115536;28;20448;-69
2022/04/19 02:25:51;;;;;;;3.40;2.40;;;6.80;99.90;;;;;;5115467;28;20526;-69
2022/04/19 02:28:17;;;;;;;4.50;2.50;;;6.80;99.90;;;;;;5115439;28;20850;-69
2022/04/19 02:30:46;;;;;;;5.57;2.90;;;6.80;99.90;;;;;;5117329;28;20788;-70
2022/04/19 02:33:12;;;;;;;5.13;2.63;;;6.70;99.90;;;;;;5117105;28;20561;-69
2022/04/19 02:35:39;;;;;;;3.10;2.80;;;6.70;99.90;;;;;;5115571;28;20456;-69
2022/04/19 02:38:06;;;;;;;3.70;2.40;;;6.70;99.90;;;;;;5115303;28;20540;-70
2022/04/19 02:40:33;;;;;;;2.90;2.60;;;6.60;99.90;;;;;;5114985;28;20514;-70
2022/04/19 02:43:00;;;;;;;4.50;2.77;;;6.60;99.90;;;;;;5115200;28;20452;-69
2022/04/19 02:45:26;;;;;;;4.40;2.80;;;6.60;99.90;;;;;;5115436;28;20452;-70
2022/04/19 02:48:05;;;;;;;3.43;2.30;;;6.50;99.90;;;;;;5115149;28;20795;-70
2022/04/19 02:50:33;;;;;;;4.73;3.17;;;6.60;99.90;;;;;;5115363;28;20746;-69
2022/04/19 02:53:01;;;;;;;4.20;2.53;;;6.50;99.90;;;;;;5115163;28;20579;-69
2022/04/19 02:55:28;;;;;;;4.87;3.53;;;6.50;99.90;;;;;;5114761;28;20484;-70
2022/04/19 02:57:55;;;;;;;4.20;2.97;;;6.50;99.90;;;;;;5114685;28;20532;-69
2022/04/19 03:00:22;;;;;;;4.83;2.70;;;6.50;99.90;;;;;;5115135;28;20460;-70
2022/04/19 03:02:49;;;;;;;7.00;3.30;;;6.40;99.90;;;;;;5114998;28;20898;-70
2022/04/19 03:05:18;;;;;;;3.17;2.87;;;6.40;99.90;;;;;;5114856;28;20457;-69
2022/04/19 03:07:44;;;;;;;3.13;2.60;;;6.30;99.90;;;;;;5115135;28;20525;-69
2022/04/19 03:10:11;;;;;;;3.20;2.10;;;6.30;99.90;;;;;;5115004;28;20467;-69
2022/04/19 03:12:38;;;;;;;3.10;2.80;;;6.30;99.90;;;;;;5115911;28;20549;-70
2022/04/19 03:15:06;;;;;;;3.03;2.63;;;6.30;99.90;;;;;;5116249;28;20597;-70
2022/04/19 03:17:34;;;;;;;5.83;2.83;;;6.20;99.90;;;;;;5116431;28;20482;-70
2022/04/19 03:20:01;;;;;;;3.73;2.90;;;6.20;99.90;;;;;;5114977;28;20839;-70
2022/04/19 03:27:41;;;;;;;2.90;2.70;;;6.20;99.90;;;;;;5114542;28;20517;-69
2022/04/19 03:28:00;;;;;;;6.33;2.90;;;6.10;99.90;;;;;;5115559;28;20428;-70
2022/04/19 03:30:27;;;;;;;3.60;3.03;;;6.10;99.90;;;;;;5115752;28;20527;-69
2022/04/19 03:32:54;;;;;;;2.50;2.30;;;6.00;99.90;;;;;;5116169;28;20476;-70
2022/04/19 03:35:21;;;;;;;5.10;2.80;;;6.00;99.90;;;;;;5115865;28;20821;-69
2022/04/19 03:37:49;;;;;;;4.63;2.60;;;6.00;99.90;;;;;;5115824;28;20467;-70
2022/04/19 03:40:16;;;;;;;3.17;2.87;;;5.90;99.90;;;;;;5114650;28;20456;-69
2022/04/19 03:42:42;;;;;;;2.83;2.50;;;5.90;99.90;;;;;;5115670;28;20449;-69
2022/04/19 03:45:10;;;;;;;2.63;2.20;;;5.80;99.90;;;;;;5115524;28;20770;-69
2022/04/19 03:47:37;;;;;;;2.77;2.57;;;5.80;99.90;;;;;;5115234;28;20466;-70
2022/04/19 03:50:05;;;;;;;3.50;2.60;;;5.90;99.90;;;;;;5115737;28;20973;-70
2022/04/19 03:52:32;;;;;;;3.10;2.90;;;5.90;99.90;;;;;;5115692;28;20480;-70
2022/04/19 03:55:00;;;;;;;5.90;3.03;;;5.80;99.90;;;;;;5115576;28;20456;-70
2022/04/19 03:57:27;;;;;;;3.27;2.90;;;5.80;99.90;;;;;;5115089;28;20448;-70
2022/04/19 03:59:54;;;;;;;3.20;2.80;;;5.80;99.90;;;;;;5115698;28;20506;-69
2022/04/19 04:02:21;;;;;;;3.47;2.77;;;5.70;99.90;;;;;;5114730;28;20959;-70
2022/04/19 04:04:47;;;;;;;6.03;3.10;;;5.70;99.90;;;;;;5115073;28;20452;-70
2022/04/19 04:07:14;;;;;;;3.40;2.97;;;5.70;99.90;;;;;;5114835;28;20917;-69
2022/04/19 04:09:41;;;;;;;5.00;3.13;;;5.70;99.90;;;;;;5114743;28;20457;-69
2022/04/19 04:12:11;;;;;;;2.80;2.40;;;5.70;99.90;;;;;;5114769;28;20472;-69
2022/04/19 04:14:39;;;;;;;4.60;3.20;;;5.60;99.90;;;;;;5115137;28;20779;-68
2022/04/19 04:17:05;;;;;;;3.83;3.13;;;5.60;99.90;;;;;;5114583;28;20452;-69
2022/04/19 04:19:32;;;;;;;7.97;3.10;;;5.60;99.90;;;;;;5115031;28;20521;-70
2022/04/19 04:21:59;;;;;;;6.03;3.13;;;5.60;99.90;;;;;;5114651;28;20452;-69
2022/04/19 04:24:26;;;;;;;4.17;3.13;;;5.60;99.90;;;;;;5114919;28;20452;-70
2022/04/19 04:26:52;;;;;;;4.40;3.20;;;5.60;99.90;;;;;;5114877;28;20452;-69
2022/04/19 04:29:20;;;;;;;4.43;2.50;;;5.60;99.90;;;;;;5114544;28;20452;-69
2022/04/19 04:31:47;;;;;;;3.90;3.10;;;5.60;99.90;;;;;;5114721;28;20483;-69
2022/04/19 04:34:14;;;;;;;3.50;2.80;;;5.60;99.90;;;;;;5115299;28;20468;-69
2022/04/19 04:36:40;;;;;;;30.17;13.10;;;5.60;99.90;;;;;;5114717;28;20950;-69
2022/04/19 04:39:07;;;;;;;5.73;4.43;;;5.60;99.90;;;;;;5114564;28;20908;-69
2022/04/19 04:41:34;;;;;;;3.33;3.03;;;5.60;99.90;;;;;;5114976;28;20461;-69
2022/04/19 04:44:00;;;;;;;4.43;3.30;;;5.60;99.90;;;;;;5114540;28;20908;-69
2022/04/19 04:51:57;;;;;;;5.30;4.20;;;5.70;99.90;;;;;;5117132;28;20565;-69
2022/04/19 04:54:23;;;;;;;5.53;3.70;;;5.70;99.90;;;;;;5118606;28;20796;-70
2022/04/19 04:56:50;;;;;;;3.60;3.30;;;5.70;99.90;;;;;;5118403;28;20484;-69
2022/04/19 04:59:17;;;;;;;5.00;3.50;;;5.70;99.90;;;;;;5118539;28;20798;-69
2022/04/19 05:01:45;;;;;;;4.10;3.07;;;5.70;99.90;;;;;;5118660;28;20452;-69
2022/04/19 05:04:11;;;;;;;4.00;3.70;;;5.80;99.90;;;;;;5118556;28;20934;-69
2022/04/19 05:06:38;;;;;;;4.00;3.40;;;5.70;99.90;;;;;;5118243;28;20504;-69
2022/04/19 05:09:05;;;;;;;5.03;3.70;;;5.70;99.90;;;;;;5118189;28;20471;-70
2022/04/19 05:11:32;;;;;;;5.20;3.90;;;5.70;99.90;;;;;;5118313;28;20818;-69
2022/04/19 05:13:58;;;;;;;4.73;3.40;;;5.80;99.90;;;;;;5118153;28;20456;-70
2022/04/19 05:16:25;;;;;;;4.50;4.10;;;5.80;99.90;;;;;;5118109;28;20520;-69
2022/04/19 05:18:53;;;;;;;7.87;4.20;;;5.80;99.90;;;;;;5118209;28;20456;-68
2022/04/19 05:21:20;;;;;;;5.63;3.60;;;5.90;99.90;;;;;;5117963;28;20456;-68
2022/04/19 05:23:47;;;;;;;5.40;3.80;;;5.80;99.90;;;;;;5117940;28;20509;-70
2022/04/19 05:26:13;;;;;;;4.00;3.50;;;5.90;99.90;;;;;;5118141;28;20487;-69
2022/04/19 05:28:40;;;;;;;4.60;3.30;;;5.90;99.90;;;;;;5117627;28;20521;-69
2022/04/19 05:31:07;;;;;;;3.37;3.03;;;5.90;99.90;;;;;;5118074;28;20793;-69
2022/04/19 05:33:33;;;;;;;4.13;3.30;;;6.00;99.90;;;;;;5117637;28;20541;-69
2022/04/19 05:36:01;;;;;;;4.70;3.70;;;6.00;99.90;;;;;;5117892;28;20461;-69
2022/04/19 05:38:28;;;;;;;6.27;4.13;;;6.10;99.90;;;;;;5117892;28;20509;-69
2022/04/19 05:40:55;;;;;;;4.40;4.00;;;6.10;99.90;;;;;;5117989;28;20452;-69
2022/04/19 05:43:22;;;;;;;4.77;3.77;;;6.20;99.90;;;;;;5118602;28;20708;-69
2022/04/19 05:45:49;;;;;;;5.40;3.90;;;6.20;99.90;;;;;;5118195;28;20589;-69
2022/04/19 05:48:15;;;;;;;4.60;4.20;;;6.20;99.90;;;;;;5117686;28;20467;-69
2022/04/19 05:50:42;;;;;;;4.27;3.50;;;6.20;99.90;;;;;;5117285;28;20453;-69
2022/04/19 05:53:11;;;;;;;6.00;4.20;;;6.30;99.90;;;;;;5117488;28;20480;-70
2022/04/19 05:55:37;;;;;;;5.00;3.90;;;6.30;99.90;;;;;;5117126;28;20506;-69
2022/04/19 05:58:04;;;;;;;5.90;3.77;;;6.40;99.90;;;;;;5117483;28;20460;-69
2022/04/19 06:00:31;;;;;;;6.83;3.70;;;6.40;99.90;;;;;;5117104;28;20467;-69
2022/04/19 06:05:42;;;;;;;6.13;3.83;;;6.50;99.90;;;;;;5116950;28;20486;-69
2022/04/19 06:08:10;;;;;;;5.70;4.53;;;6.60;99.90;;;;;;5116556;28;20453;-70
2022/04/19 06:10:36;;;;;;;7.97;4.60;;;6.60;99.90;;;;;;5117158;28;20452;-69
2022/04/19 06:13:03;;;;;;;5.10;4.27;;;6.70;99.90;;;;;;5116906;28;20757;-69
2022/04/19 06:15:31;;;;;;;8.20;6.40;;;6.70;99.90;;;;;;5116829;28;20610;-69
2022/04/19 06:17:57;;;;;;;36.53;23.40;;;6.80;99.90;;;;;;5116674;28;20464;-70
2022/04/19 06:20:25;;;;;;;7.13;5.60;;;6.80;99.90;;;;;;5116614;28;20467;-70
2022/04/19 06:22:51;;;;;;;4.80;4.20;;;6.90;99.90;;;;;;5117527;28;20467;-70
2022/04/19 06:25:19;;;;;;;5.60;4.30;;;7.00;99.90;;;;;;5116652;28;20464;-70
2022/04/19 06:27:46;;;;;;;5.53;3.93;;;7.10;99.90;;;;;;5116893;28;20456;-70
2022/04/19 06:30:14;;;;;;;4.90;4.30;;;7.10;99.90;;;;;;5116304;28;20517;-69
2022/04/19 06:32:41;;;;;;;6.37;4.73;;;7.20;99.90;;;;;;5116479;28;20530;-70
2022/04/19 06:35:09;;;;;;;7.23;5.13;;;7.30;99.90;;;;;;5115906;28;20461;-70
2022/04/19 06:37:35;;;;;;;9.73;4.63;;;7.40;99.90;;;;;;5116330;28;20452;-70
2022/04/19 06:40:04;;;;;;;7.10;4.97;;;7.40;99.90;;;;;;5116009;28;20456;-70
2022/04/19 06:42:32;;;;;;;6.90;4.73;;;7.40;99.90;;;;;;5116157;28;20920;-70
2022/04/19 06:44:59;;;;;;;6.37;4.47;;;7.50;99.90;;;;;;5116192;28;20456;-70
2022/04/19 06:47:26;;;;;;;7.83;4.80;;;7.50;99.90;;;;;;5116717;28;20469;-69
2022/04/19 06:49:52;;;;;;;6.53;4.60;;;7.50;99.90;;;;;;5116045;28;20461;-69
2022/04/19 06:52:19;;;;;;;4.40;4.00;;;7.50;99.90;;;;;;5116019;28;20532;-70
2022/04/19 06:54:46;;;;;;;6.57;4.20;;;7.60;99.90;;;;;;5116318;28;20460;-70
2022/04/19 06:57:13;;;;;;;7.80;4.77;;;7.70;99.90;;;;;;5116393;28;20479;-71
2022/04/19 06:59:41;;;;;;;8.03;4.73;;;7.80;99.90;;;;;;5115874;28;20456;-69
2022/04/19 07:02:08;;;;;;;6.40;4.30;;;7.90;99.90;;;;;;5116400;28;20475;-69
2022/04/19 07:04:35;;;;;;;9.00;4.97;;;7.90;99.90;;;;;;5116070;28;20493;-70
2022/04/19 07:07:03;;;;;;;6.80;4.47;;;8.00;99.90;;;;;;5116450;28;20460;-70
2022/04/19 07:09:30;;;;;;;8.30;5.30;;;8.10;99.90;;;;;;5116209;28;20492;-69
2022/04/19 07:11:57;;;;;;;6.40;5.03;;;8.20;99.90;;;;;;5116214;28;20452;-69
2022/04/19 07:14:24;;;;;;;36.77;23.33;;;8.30;99.90;;;;;;5114677;28;20476;-69
2022/04/19 07:16:52;;;;;;;10.23;5.60;;;8.40;99.90;;;;;;5115694;28;20522;-69
2022/04/19 07:19:18;;;;;;;7.40;4.20;;;8.60;99.90;;;;;;5116313;28;20909;-69
2022/04/19 07:27:10;;;;;;;8.77;4.47;;;8.80;99.90;;;;;;5115018;28;20429;-69
2022/04/19 07:29:37;;;;;;;5.50;3.90;;;8.90;99.90;;;;;;5115709;28;20448;-69
2022/04/19 07:32:06;;;;;;;17.90;11.70;;;8.90;99.90;;;;;;5115354;28;20976;-69
2022/04/19 07:34:33;;;;;;;5.23;4.10;;;9.00;99.90;;;;;;5115553;28;20491;-69
2022/04/19 07:37:00;;;;;;;6.00;4.53;;;9.10;99.90;;;;;;5115188;28;20460;-69
2022/04/19 07:39:26;;;;;;;8.20;4.60;;;9.10;99.90;;;;;;5115463;28;20563;-70
2022/04/19 07:41:54;;;;;;;6.13;4.03;;;9.20;99.90;;;;;;5115272;28;20464;-70
2022/04/19 07:44:20;;;;;;;4.30;3.67;;;9.30;99.90;;;;;;5115429;28;20539;-69
2022/04/19 07:46:47;;;;;;;5.00;3.20;;;9.40;99.90;;;;;;5115087;28;20457;-70
2022/04/19 07:49:15;;;;;;;4.40;3.20;;;9.50;99.90;;;;;;5114502;28;20936;-70
2022/04/19 07:51:43;;;;;;;3.50;3.20;;;9.60;99.90;;;;;;5114792;28;20968;-69
2022/04/19 07:54:10;;;;;;;3.37;2.63;;;9.70;99.90;;;;;;5115132;28;20472;-69
2022/04/19 07:56:36;;;;;;;3.27;2.97;;;9.80;99.90;;;;;;5114812;28;20508;-69
2022/04/19 07:59:03;;;;;;;2.83;2.47;;;9.80;99.90;;;;;;5115202;28;20471;-69
2022/04/19 08:01:30;;;;;;;5.03;3.47;;;9.80;99.90;;;;;;5115246;28;20460;-70
2022/04/19 08:03:56;;;;;;;4.10;2.73;;;9.90;99.90;;;;;;5115184;28;20456;-70
2022/04/19 08:06:24;;;;;;;2.87;2.33;;;10.00;99.90;;;;;;5115450;28;20468;-71
2022/04/19 08:08:51;;;;;;;3.27;2.73;;;10.10;99.90;;;;;;5114620;28;20456;-70
2022/04/19 08:11:18;;;;;;;5.07;2.70;;;10.20;99.90;;;;;;5115015;28;20520;-70
2022/04/19 08:13:44;;;;;;;3.30;2.50;;;10.20;99.90;;;;;;5115622;28;20491;-70
2022/04/19 08:16:11;;;;;;;6.40;2.40;;;10.20;99.90;;;;;;5115124;28;20527;-70
2022/04/19 08:18:40;;;;;;;3.30;2.43;;;10.30;99.90;;;;;;5115322;28;20484;-70
2022/04/19 08:21:07;;;;;;;4.73;2.80;;;10.30;99.90;;;;;;5115922;28;20452;-70
2022/04/19 08:23:35;;;;;;;4.00;2.50;;;10.40;99.90;;;;;;5115857;28;20453;-70
2022/04/19 08:26:01;;;;;;;8.57;3.20;;;10.40;99.90;;;;;;5116842;28;20453;-70
2022/04/19 08:28:28;;;;;;;2.80;2.50;;;10.50;99.90;;;;;;5119774;28;20475;-70
2022/04/19 08:30:55;;;;;;;3.33;2.30;;;10.70;99.90;;;;;;5119322;28;20464;-70
2022/04/19 08:33:21;;;;;;;3.70;2.57;;;10.80;99.90;;;;;;5118666;28;20472;-70
2022/04/19 08:35:48;;;;;;;2.47;2.27;;;10.90;99.90;;;;;;5118841;28;20927;-70
2022/04/19 08:38:15;;;;;;;4.70;2.30;;;10.90;99.90;;;;;;5118800;28;20456;-70
2022/04/19 08:40:43;;;;;;;5.33;3.47;;;11.00;99.90;;;;;;5119523;28;20463;-70
2022/04/19 08:43:11;;;;;;;3.67;2.40;;;11.00;99.90;;;;;;5119984;28;20539;-70
2022/04/19 08:45:38;;;;;;;4.90;2.43;;;11.10;99.20;;;;;;5122096;28;20452;-70
2022/04/19 08:48:09;;;;;;;2.20;2.00;;;11.00;98.90;;;;;;5119668;28;20448;-70
2022/04/19 08:50:36;;;;;;;3.20;2.40;;;11.00;98.60;;;;;;5118760;28;20448;-70
2022/04/19 08:58:33;;;;;;;4.20;2.43;;;11.10;99.10;;;;;;5118720;28;20522;-70
2022/04/19 09:01:00;;;;;;;2.23;2.00;;;11.10;98.90;;;;;;5118148;28;20913;-70
2022/04/19 09:03:27;;;;;;;5.43;3.10;;;11.20;97.40;;;;;;5118500;28;20462;-70
2022/04/19 09:05:54;;;;;;;4.30;3.67;;;11.30;97.60;;;;;;5118370;28;20482;-69
2022/04/19 09:08:21;;;;;;;3.93;2.57;;;11.40;97.10;;;;;;5118682;28;20456;-70
2022/04/19 09:10:51;;;;;;;3.37;2.03;;;11.60;96.60;;;;;;5118540;28;20543;-69
2022/04/19 09:13:23;;;;;;;1.80;1.67;;;11.70;96.00;;;;;;5118380;28;20503;-70
2022/04/19 09:15:53;;;;;;;2.80;1.93;;;11.80;95.40;;;;;;5117852;28;20638;-73
2022/04/19 09:18:25;;;;;;;3.53;1.87;;;11.80;95.90;;;;;;5118455;28;20462;-70
2022/04/19 09:20:53;;;;;;;3.87;1.93;;;12.00;95.40;;;;;;5118215;28;20847;-70
2022/04/19 09:23:20;;;;;;;2.30;2.10;;;12.10;95.00;;;;;;5117989;28;20449;-70
2022/04/19 09:25:50;;;;;;;3.40;2.70;;;12.10;95.40;;;;;;5117949;28;20913;-70
2022/04/19 09:28:19;;;;;;;3.33;2.33;;;12.20;94.40;;;;;;5117553;28;20471;-70
2022/04/19 09:30:48;;;;;;;13.73;9.43;;;12.30;94.10;;;;;;5118328;28;20460;-70
2022/04/19 09:33:16;;;;;;;3.67;1.70;;;12.20;93.60;;;;;;5117710;28;20877;-70
2022/04/19 09:35:44;;;;;;;3.43;1.77;;;12.20;92.90;;;;;;5117831;28;20925;-70
2022/04/19 09:38:12;;;;;;;3.10;1.93;;;12.30;92.60;;;;;;5116984;28;20456;-70
2022/04/19 09:40:41;;;;;;;1.70;1.60;;;12.30;92.10;;;;;;5117960;28;20464;-70
2022/04/19 09:43:17;;;;;;;1.83;1.70;;;12.40;91.50;;;;;;5117706;28;20482;-70
2022/04/19 09:46:03;;;;;;;2.50;1.80;;;12.50;91.30;;;;;;5117946;28;20852;-71
2022/04/19 09:48:32;;;;;;;2.30;1.77;;;12.60;90.60;;;;;;5118554;28;20437;-69
2022/04/19 09:51:02;;;;;;;1.67;1.50;;;12.80;90.40;;;;;;5117625;28;20449;-69
2022/04/19 09:53:31;;;;;;;2.33;1.67;;;12.90;89.80;;;;;;5117769;28;20940;-70
2022/04/19 09:55:59;;;;;;;2.40;1.53;;;13.00;88.70;;;;;;5117790;28;20512;-70
2022/04/19 09:58:28;;;;;;;2.97;1.50;;;13.10;89.10;;;;;;5118352;28;20452;-71
2022/04/19 10:00:57;;;;;;;3.57;1.73;;;13.20;87.90;;;;;;5117813;28;20487;-71
2022/04/19 10:09:05;;;;;;;7.90;5.90;;;13.30;85.40;;;;;;5116956;28;20447;-71
2022/04/19 10:11:32;;;;;;;3.03;1.93;;;13.40;83.30;;;;;;5116939;28;20456;-71
2022/04/19 10:14:00;;;;;;;2.30;1.80;;;13.40;83.30;;;;;;5117276;28;20517;-71
2022/04/19 10:16:30;;;;;;;1.87;1.60;;;13.60;82.70;;;;;;5117760;28;20456;-70
2022/04/19 10:18:57;;;;;;;2.03;1.70;;;13.80;82.10;;;;;;5118622;28;20479;-70
2022/04/19 10:21:27;;;;;;;2.50;1.60;;;14.00;79.50;;;;;;5118492;28;20551;-71
2022/04/19 10:24:10;;;;;;;2.77;2.23;;;14.10;78.90;;;;;;5119125;28;20746;-70
2022/04/19 10:26:43;;;;;;;2.77;1.80;;;14.20;78.30;;;;;;5118027;28;20433;-70
2022/04/19 10:29:18;;;;;;;4.93;4.33;;;14.30;77.90;;;;;;5117037;28;20468;-70
2022/04/19 10:31:55;;;;;;;3.03;1.60;;;14.40;77.30;;;;;;5117302;28;20447;-71
2022/04/19 10:34:25;;;;;;;2.13;1.60;;;14.50;75.30;;;;;;5117295;28;20939;-70
2022/04/19 10:36:54;;;;;;;1.80;1.50;;;14.40;74.40;;;;;;5116837;28;20461;-71
2022/04/19 10:39:23;;;;;;;1.50;1.40;;;14.40;74.00;;;;;;5117142;28;20764;-71
2022/04/19 10:41:53;;;;;;;1.83;1.33;;;14.40;72.30;;;;;;5116429;28;20471;-71
2022/04/19 10:44:36;;;;;;;2.90;1.40;;;14.40;72.40;;;;;;5116337;28;20885;-71
2022/04/19 10:47:14;;;;;;;2.30;1.93;;;14.50;71.20;;;;;;5116813;28;20532;-70
2022/04/19 10:50:00;;;;;;;14.20;11.93;;;14.50;71.30;;;;;;5116322;28;20479;-70
2022/04/19 10:52:49;;;;;;;2.30;1.50;;;14.70;69.30;;;;;;5116982;28;20472;-70
2022/04/19 10:55:21;;;;;;;2.17;1.73;;;14.90;67.70;;;;;;5116944;28;20480;-70
2022/04/19 10:58:12;;;;;;;3.93;1.90;;;15.20;68.30;;;;;;5117461;28;20436;-71
2022/04/19 11:00:45;;;;;;;1.90;1.43;;;15.50;65.60;;;;;;5117180;28;20461;-70
2022/04/19 11:03:13;;;;;;;3.20;1.30;;;15.60;64.60;;;;;;5116791;28;20455;-70
2022/04/19 11:05:42;;;;;;;6.23;2.27;;;15.50;61.40;;;;;;5117433;28;20475;-70
2022/04/19 11:08:35;;;;;;;2.10;1.90;;;15.30;61.70;;;;;;5117201;28;20452;-72
2022/04/19 11:11:43;;;;;;;2.60;2.07;;;15.20;61.40;;;;;;5116652;28;20960;-71
2022/04/19 11:14:44;;;;;;;5.03;2.77;;;15.30;60.70;;;;;;5086219;28;20487;-70
2022/04/19 11:17:28;;;;;;;6.23;1.73;;;15.30;59.70;;;;;;5117253;28;20451;-70
2022/04/19 11:19:56;;;;;;;2.63;1.70;;;15.60;59.50;;;;;;5117572;28;20447;-70
2022/04/19 11:22:29;;;;;;;1.87;1.70;;;16.00;59.90;;;;;;5116971;28;20480;-70
2022/04/19 11:25:05;;;;;;;2.50;1.50;;;16.70;58.80;;;;;;5116822;28;20542;-70
2022/04/19 11:28:09;;;;;;;2.67;1.83;;;17.60;56.00;;;;;;5116490;28;20460;-70
2022/04/19 11:30:37;;;;;;;3.77;2.83;;;18.40;55.10;;;;;;5117208;28;20452;-70
2022/04/19 11:33:08;;;;;;;2.80;1.70;;;19.50;52.50;;;;;;5116874;28;20456;-70
2022/04/19 11:35:35;;;;;;;3.07;2.20;;;19.90;50.30;;;;;;5117051;28;20846;-70
2022/04/19 11:38:08;;;;;;;2.47;2.27;;;20.00;48.50;;;;;;5116837;28;20449;-71
2022/04/19 11:49:06;;;;;;;2.23;1.90;;;18.40;47.50;;;;;;5116846;28;20464;-71
2022/04/19 11:51:35;;;;;;;2.53;1.77;;;17.90;48.10;;;;;;5117639;28;20456;-71
2022/04/19 11:54:02;;;;;;;49.90;34.20;;;17.50;48.60;;;;;;5116685;28;20528;-69
2022/04/19 11:56:29;;;;;;;8.10;4.63;;;17.20;49.10;;;;;;5116445;28;20488;-70
2022/04/19 11:58:59;;;;;;;2.30;2.10;;;17.10;50.10;;;;;;5116559;28;20459;-71
2022/04/19 12:01:25;;;;;;;4.13;3.00;;;17.30;49.70;;;;;;5115496;28;20951;-70
2022/04/19 12:03:52;;;;;;;4.00;2.70;;;17.40;49.90;;;;;;5116318;28;20464;-70
2022/04/19 12:06:21;;;;;;;4.50;1.80;;;17.20;50.00;;;;;;5116684;28;20456;-70
2022/04/19 12:08:51;;;;;;;1.90;1.80;;;17.00;50.20;;;;;;5116275;28;20456;-70
2022/04/19 12:11:19;;;;;;;3.20;2.90;;;16.80;50.80;;;;;;5116124;28;20484;-70
2022/04/19 12:13:47;;;;;;;11.33;1.90;;;16.70;51.40;;;;;;5116503;28;20453;-70
2022/04/19 12:16:29;;;;;;;3.00;2.00;;;16.50;51.10;;;;;;5116073;28;20488;-71
2022/04/19 12:18:57;;;;;;;2.13;1.60;;;16.30;51.80;;;;;;5116208;28;20433;-71
2022/04/19 12:21:38;;;;;;;2.23;1.87;;;16.40;51.90;;;;;;5115459;28;20829;-73
2022/04/19 12:24:05;;;;;;;2.60;2.17;;;16.30;51.90;;;;;;5116386;28;20779;-70
2022/04/19 12:26:32;;;;;;;4.23;2.80;;;16.30;52.90;;;;;;5116655;28;20915;-72
2022/04/19 12:29:09;;;;;;;4.10;2.27;;;16.40;52.30;;;;;;5115924;28;20925;-70
2022/04/19 12:31:39;;;;;;;7.20;1.83;;;16.30;52.70;;;;;;5116435;28;20498;-71
2022/04/19 12:34:06;;;;;;;2.77;2.10;;;16.10;52.90;;;;;;5115797;28;20506;-71
2022/04/19 12:36:43;;;;;;;11.63;2.80;;;15.70;53.50;;;;;;5115425;28;20790;-72
2022/04/19 12:39:10;;;;;;;3.20;2.23;;;15.50;54.00;;;;;;5115603;28;20437;-72
2022/04/19 12:41:39;;;;;;;4.10;2.07;;;15.40;55.20;;;;;;5115623;28;20463;-71
2022/04/19 12:44:08;;;;;;;2.70;2.20;;;15.80;55.30;;;;;;5115416;28;20452;-71
2022/04/19 12:46:43;;;;;;;2.33;1.80;;;16.50;55.00;;;;;;5114708;28;20874;-69
2022/04/19 12:49:22;;;;;;;11.13;6.23;;;17.60;53.30;;;;;;5114959;28;20446;-70
2022/04/19 12:52:00;;;;;;;2.50;2.00;;;18.70;51.50;;;;;;5114655;28;20467;-71
2022/04/19 12:54:28;;;;;;;2.53;2.10;;;19.50;50.20;;;;;;5114750;28;20484;-71
2022/04/19 13:00:17;;;;;;;2.23;1.97;;;21.40;47.50;;;;;;5114438;28;20420;-71
2022/04/19 13:02:44;;;;;;;2.13;1.50;;;21.20;44.90;;;;;;5114676;28;20497;-72
2022/04/19 13:05:11;;;;;;;2.13;1.60;;;20.60;44.40;;;;;;5114960;28;20785;-71
2022/04/19 13:13:11;;;;;;;3.30;1.67;;;19.20;45.80;;;;;;5117690;28;20903;-70
2022/04/19 13:15:38;;;;;;;2.40;1.77;;;18.70;46.80;;;;;;5117991;28;20487;-72
2022/04/19 13:18:05;;;;;;;4.43;1.83;;;18.40;46.70;;;;;;5118420;28;20478;-71
2022/04/19 13:20:33;;;;;;;3.33;1.97;;;18.40;47.50;;;;;;5117793;28;20475;-71
2022/04/19 13:23:01;;;;;;;2.60;1.80;;;18.50;47.30;;;;;;5118246;28;20467;-70
2022/04/19 13:25:28;;;;;;;3.50;1.80;;;18.60;46.60;;;;;;5117959;28;20457;-70
2022/04/19 13:27:55;;;;;;;5.80;1.80;;;19.00;46.80;;;;;;5117671;28;20547;-70
2022/04/19 13:30:22;;;;;;;3.30;1.47;;;19.50;46.60;;;;;;5118134;28;20479;-70
2022/04/19 13:32:49;;;;;;;2.97;1.70;;;20.20;45.60;;;;;;5117865;28;20456;-71
2022/04/19 13:35:16;;;;;;;4.67;1.83;;;21.10;44.90;;;;;;5118149;28;20575;-71
2022/04/19 13:40:29;;;;;;;1.90;1.30;;;22.40;41.80;;;;;;5118284;28;20427;-70
2022/04/19 13:42:55;;;;;;;2.17;1.47;;;22.50;40.10;;;;;;5117746;28;20453;-70
2022/04/19 13:45:22;;;;;;;2.00;1.37;;;22.40;40.50;;;;;;5117812;28;20580;-70
2022/04/19 13:47:49;;;;;;;1.80;1.27;;;22.50;40.40;;;;;;5117614;28;20513;-71
2022/04/19 13:50:16;;;;;;;2.20;1.17;;;23.10;39.20;;;;;;5117404;28;20482;-71